This is the latest recevied weather packets stored in our database for station/object W1NHD. If no packets are shown the sender has not sent any weather packets the latest 10 day(s).
| Time | Temp. | Humidity | Pressure | Rain* | Wind** | Luminosity | Snow |
|---|---|---|---|---|---|---|---|
| 1777959316 | 11.67° C | 80% | 1009.9 hPa | 0 mm | - | - | - |
| 1777952138 | 12.78° C | 75% | 1010 hPa | 0 mm | - | - | - |
| 1777942517 | 15° C | 64% | 1009 hPa | 0 mm | - | - | - |
| 1777937116 | 16.67° C | 57% | 1007 hPa | 0 mm | - | - | - |
| 1777934116 | 17.22° C | 55% | 1006.3 hPa | 0 mm | - | - | - |
| 1777932916 | 17.78° C | 52% | 1006.1 hPa | 0 mm | - | - | - |
| 1777926316 | 22.22° C | 33% | 1006 hPa | 0 mm | - | - | - |
| 1777925117 | 22.22° C | 33% | 1006.2 hPa | 0 mm | - | - | - |
| 1777917939 | 21.11° C | 34% | 1006.8 hPa | 0 mm | - | - | - |
| 1777917318 | 20.56° C | 35% | 1007 hPa | 0 mm | - | - | - |
| 1777915518 | 20.56° C | 35% | 1007.2 hPa | 0 mm | - | - | - |
| 1777911939 | 20° C | 37% | 1007.1 hPa | 0 mm | - | - | - |
| 1777910718 | 20° C | 39% | 1007.4 hPa | 0 mm | - | - | - |
| 1777909518 | 18.89° C | 45% | 1007.7 hPa | 0 mm | - | - | - |
| 1777907117 | 18.33° C | 45% | 1008.5 hPa | 0 mm | - | - | - |
| 1777905917 | 18.33° C | 43% | 1008.7 hPa | 0 mm | - | - | - |
| 1777904118 | 17.22° C | 45% | 1008.8 hPa | 0 mm | - | - | - |
| 1777903517 | 16.67° C | 45% | 1009 hPa | 0 mm | - | - | - |
| 1777892117 | 10° C | 61% | 1010.3 hPa | 0 mm | - | - | - |
| 1777883137 | 8.89° C | 58% | 1010 hPa | 0 mm | - | - | - |
| 1777881916 | 8.89° C | 58% | 1009.9 hPa | 0 mm | - | - | - |
| 1777877117 | 8.33° C | 55% | 1009.7 hPa | 0 mm | - | - | - |
| 1777869916 | 7.22° C | 59% | 1009.9 hPa | 0 mm | - | - | - |
| 1777867516 | 7.22° C | 61% | 1009.7 hPa | 0 mm | - | - | - |
| 1777864537 | 6.67° C | 65% | 1009.5 hPa | 0 mm | - | - | - |
* Rain latest hour (hover to see other rain measurements)
** Current wind speed in m/s (hover to see current wind gust speed)